Time;durP1;ratioP1;P1;durP2;ratioP2;P2;SDS_P1;SDS_P2;PMS_P1;PMS_P2;Temp;Humidity;BMP_temperature;BMP_pressure;BME280_temperature;BME280_humidity;BME280_pressure;Samples;Min_cycle;Max_cycle;Signal;HPM_P1;HPM_P2
2021/04/06 00:01:26;;;;;;;12.60;3.05;;;;;;;3.25;64.21;100029.97;5055764;28;20658;-44
2021/04/06 00:03:54;;;;;;;3.20;1.38;;;;;;;3.21;63.97;100036.56;5055430;28;20302;-45
2021/04/06 00:06:21;;;;;;;11.52;2.03;;;;;;;2.99;64.84;100036.94;5056291;28;20220;-46
2021/04/06 00:08:48;;;;;;;9.73;2.17;;;;;;;3.04;64.54;100035.56;5055034;28;20703;-45
2021/04/06 00:11:17;;;;;;;8.35;1.13;;;;;;;2.96;64.60;100044.38;5056220;28;20311;-44
2021/04/06 00:13:44;;;;;;;10.32;1.90;;;;;;;3.23;63.97;100044.31;5054739;28;20229;-46
2021/04/06 00:16:11;;;;;;;4.13;0.98;;;;;;;3.01;64.45;100043.00;5056752;28;20197;-46
2021/04/06 00:18:39;;;;;;;9.25;1.42;;;;;;;3.20;64.07;100044.09;5055926;28;20225;-48
2021/04/06 00:21:07;;;;;;;7.25;1.30;;;;;;;3.17;63.71;100038.84;5056296;28;20229;-44
2021/04/06 00:23:34;;;;;;;12.35;1.63;;;;;;;3.31;63.79;100039.63;5055261;28;20968;-47
2021/04/06 00:26:01;;;;;;;17.58;3.53;;;;;;;3.14;64.32;100041.19;5056595;28;20600;-45
2021/04/06 00:28:35;;;;;;;6.15;1.83;;;;;;;3.20;63.96;100039.91;5055882;28;20216;-45
2021/04/06 00:31:03;;;;;;;7.55;1.40;;;;;;;3.22;63.95;100037.41;5056039;28;20230;-45
2021/04/06 00:33:33;;;;;;;2.88;1.00;;;;;;;3.23;63.98;100039.22;5055852;28;20197;-45
2021/04/06 00:36:02;;;;;;;16.40;2.20;;;;;;;3.16;63.86;100027.75;5056321;28;20296;-46
2021/04/06 00:38:32;;;;;;;10.52;1.83;;;;;;;2.86;64.96;100031.88;5055547;28;20293;-45
2021/04/06 00:41:00;;;;;;;6.07;1.05;;;;;;;3.09;64.04;100028.16;5056227;28;20330;-45
2021/04/06 00:43:33;;;;;;;2.35;0.82;;;;;;;3.21;63.81;100025.47;5055657;28;20205;-44
2021/04/06 00:46:01;;;;;;;2.67;0.93;;;;;;;3.14;64.16;100024.22;5056700;28;20213;-44
2021/04/06 00:48:31;;;;;;;12.73;1.35;;;;;;;3.24;63.59;100020.56;5055805;28;20216;-47
2021/04/06 00:51:11;;;;;;;27.08;4.22;;;;;;;3.08;64.17;100021.31;5055946;28;20751;-45
2021/04/06 00:54:08;;;;;;;6.93;1.30;;;;;;;2.88;64.53;100030.28;5055376;28;20311;-45
2021/04/06 00:56:36;;;;;;;7.38;0.75;;;;;;;3.13;64.01;100024.13;4995248;28;20637;-45
2021/04/06 00:59:05;;;;;;;11.18;1.70;;;;;;;3.07;63.95;100028.06;5041562;28;20324;-46
2021/04/06 01:01:37;;;;;;;5.43;1.02;;;;;;;2.81;64.92;100029.03;5055623;28;20217;-44
2021/04/06 01:04:05;;;;;;;8.13;1.02;;;;;;;3.02;64.72;100034.56;5055591;28;20233;-46
2021/04/06 01:06:33;;;;;;;6.07;1.00;;;;;;;3.14;64.07;100034.44;5056298;28;20208;-48
2021/04/06 01:08:59;;;;;;;3.65;0.80;;;;;;;3.02;64.42;100036.25;5055005;28;20237;-47
2021/04/06 01:11:26;;;;;;;8.45;1.33;;;;;;;3.07;64.59;100032.28;5055451;28;20628;-44
2021/04/06 01:14:00;;;;;;;2.40;0.80;;;;;;;2.93;64.86;100039.09;5054816;28;20229;-47
2021/04/06 01:16:27;;;;;;;2.97;0.90;;;;;;;3.04;64.54;100030.44;5056210;28;20292;-49
2021/04/06 01:18:54;;;;;;;3.70;1.15;;;;;;;2.90;64.86;100033.81;5052539;28;20233;-45
2021/04/06 01:21:22;;;;;;;12.25;1.85;;;;;;;2.95;65.31;100037.53;5054950;28;20229;-46
2021/04/06 01:23:49;;;;;;;7.90;2.10;;;;;;;3.00;64.83;100031.03;5054772;28;20241;-45
2021/04/06 01:26:16;;;;;;;6.32;0.70;;;;;;;2.94;65.06;100026.47;5055980;28;20221;-44
2021/04/06 01:28:42;;;;;;;2.75;0.85;;;;;;;2.91;64.96;100021.16;5054783;28;20253;-45
2021/04/06 01:31:09;;;;;;;2.08;0.82;;;;;;;2.82;65.70;100016.38;5055275;28;20676;-47
2021/04/06 01:33:36;;;;;;;6.15;1.70;;;;;;;3.03;64.67;100018.47;5054792;28;20695;-46
2021/04/06 01:36:05;;;;;;;1.85;0.60;;;;;;;3.10;65.06;100010.44;5055937;28;20288;-45
2021/04/06 01:38:33;;;;;;;4.05;0.57;;;;;;;2.96;65.52;100016.34;5054163;28;20288;-46
2021/04/06 01:41:02;;;;;;;3.72;0.85;;;;;;;2.75;65.85;100009.16;5055209;28;20651;-46
2021/04/06 01:43:29;;;;;;;3.35;1.02;;;;;;;2.66;66.47;100009.47;5054679;28;20295;-45
2021/04/06 01:45:57;;;;;;;2.58;1.30;;;;;;;2.60;66.10;100010.78;5055575;28;20212;-48
2021/04/06 01:48:27;;;;;;;1.50;0.70;;;;;;;2.94;66.33;100016.28;5054555;28;20201;-48
2021/04/06 01:50:55;;;;;;;3.85;0.85;;;;;;;2.99;65.37;100010.56;5055165;28;20201;-49
2021/04/06 01:53:22;;;;;;;6.30;1.70;;;;;;;3.23;64.57;100018.81;5054459;28;20204;-47
2021/04/06 01:55:54;;;;;;;2.28;1.05;;;;;;;3.11;65.45;100013.84;5055275;28;20775;-47
2021/04/06 01:58:23;;;;;;;9.75;1.35;;;;;;;3.37;64.53;100010.28;5054516;28;20603;-47
2021/04/06 02:01:02;;;;;;;1.92;0.52;;;;;;;3.13;64.84;100007.16;5055025;28;20586;-45
2021/04/06 02:03:32;;;;;;;2.38;0.52;;;;;;;3.11;64.87;100006.19;5054781;28;20297;-45
2021/04/06 02:06:00;;;;;;;2.35;1.08;;;;;;;3.18;64.95;100015.09;5055225;28;20699;-44
2021/04/06 02:08:28;;;;;;;4.35;1.38;;;;;;;3.32;64.00;100015.91;5054638;28;20201;-46
2021/04/06 02:10:55;;;;;;;3.05;1.40;;;;;;;3.38;64.37;100009.50;5054450;28;20205;-48
2021/04/06 02:13:22;;;;;;;10.05;1.98;;;;;;;3.35;64.37;100014.41;5054232;28;20201;-45
2021/04/06 02:15:57;;;;;;;5.38;1.65;;;;;;;3.60;63.92;100004.78;5055058;28;21086;-47
2021/04/06 02:18:25;;;;;;;2.08;0.82;;;;;;;3.31;64.72;100012.47;5054620;28;20196;-46
2021/04/06 02:20:53;;;;;;;3.28;0.90;;;;;;;3.23;64.87;100008.59;5054532;28;20239;-45
2021/04/06 02:23:20;;;;;;;18.05;3.80;;;;;;;3.51;64.27;100010.22;5054073;28;20715;-46
2021/04/06 02:25:51;;;;;;;3.65;0.90;;;;;;;3.73;63.52;100008.91;5055154;28;20225;-45
2021/04/06 02:28:21;;;;;;;2.67;1.10;;;;;;;3.46;64.68;100009.06;5053919;28;20315;-44
2021/04/06 02:30:56;;;;;;;3.85;1.02;;;;;;;3.09;66.00;100026.47;5054672;28;20229;-45
2021/04/06 02:33:24;;;;;;;7.75;2.15;;;;;;;3.65;64.36;100032.31;5057674;28;20701;-45
2021/04/06 02:35:56;;;;;;;5.22;2.10;;;;;;;3.35;65.17;100029.69;5058923;28;20229;-45
2021/04/06 02:38:22;;;;;;;3.70;1.20;;;;;;;3.26;65.26;100026.63;5058392;28;20201;-45
2021/04/06 02:41:08;;;;;;;5.93;1.67;;;;;;;3.57;65.45;100018.22;5058801;28;20225;-46
2021/04/06 02:43:49;;;;;;;2.95;1.70;;;;;;;3.24;66.76;100025.66;5057668;28;20240;-47
2021/04/06 02:46:20;;;;;;;4.85;1.98;;;;;;;3.53;66.03;100013.72;5059005;28;20208;-47
2021/04/06 02:48:49;;;;;;;7.65;2.33;;;;;;;3.63;66.09;100025.34;5058444;28;20268;-45
2021/04/06 02:51:17;;;;;;;5.47;1.23;;;;;;;3.45;68.85;100015.84;5058365;28;20648;-45
2021/04/06 02:53:47;;;;;;;12.48;2.63;;;;;;;3.54;66.53;100019.72;5057615;28;20312;-46
2021/04/06 02:56:29;;;;;;;4.05;1.25;;;;;;;3.91;66.23;100012.50;5058953;28;20203;-44
2021/04/06 02:59:11;;;;;;;8.30;1.90;;;;;;;3.82;66.95;100011.09;5057792;28;20249;-45
2021/04/06 03:01:38;;;;;;;6.75;1.55;;;;;;;3.85;66.81;100009.59;5058280;28;20217;-46
2021/04/06 03:04:20;;;;;;;3.60;1.10;;;;;;;3.75;66.78;100000.53;5057527;28;20237;-45
2021/04/06 03:06:46;;;;;;;4.78;1.80;;;;;;;3.85;66.74;99996.84;5058936;28;20200;-46
2021/04/06 03:09:13;;;;;;;7.93;2.25;;;;;;;3.94;66.03;100001.56;5057452;28;20251;-45
2021/04/06 03:11:44;;;;;;;10.70;2.08;;;;;;;4.03;65.69;100008.88;5057913;28;20335;-45
2021/04/06 03:14:11;;;;;;;4.65;2.45;;;;;;;4.38;64.90;99997.19;5057264;28;20240;-46
2021/04/06 03:16:39;;;;;;;10.27;3.20;;;;;;;4.33;65.49;100001.16;5058452;28;20201;-44
2021/04/06 03:19:06;;;;;;;7.97;2.78;;;;;;;4.87;63.72;100003.16;5057523;28;20241;-44
2021/04/06 03:21:33;;;;;;;12.20;2.70;;;;;;;4.69;64.24;100016.75;5057838;28;20243;-46
2021/04/06 03:24:01;;;;;;;16.63;3.40;;;;;;;4.64;64.70;100010.50;5057631;28;20229;-45
2021/04/06 03:26:28;;;;;;;16.42;2.65;;;;;;;4.58;64.89;100005.06;5058367;28;20209;-45
2021/04/06 03:28:58;;;;;;;8.52;2.13;;;;;;;4.27;65.39;100013.59;5056843;28;20241;-46
2021/04/06 03:31:26;;;;;;;6.70;2.50;;;;;;;3.97;67.08;100011.09;5057476;28;20716;-46
2021/04/06 03:33:56;;;;;;;8.07;2.70;;;;;;;3.98;66.95;100003.53;5057430;28;20243;-45
2021/04/06 03:36:24;;;;;;;13.00;2.83;;;;;;;3.95;66.70;100010.13;5058162;28;20194;-46
2021/04/06 03:38:52;;;;;;;6.35;2.28;;;;;;;3.97;67.29;100005.97;5057019;28;20267;-49
2021/04/06 03:41:19;;;;;;;6.05;1.88;;;;;;;4.17;66.73;100010.53;5057520;28;20232;-47
2021/04/06 03:43:46;;;;;;;4.30;1.95;;;;;;;4.11;66.24;100005.06;5056025;28;20225;-45
2021/04/06 03:46:12;;;;;;;9.65;2.10;;;;;;;4.35;66.01;100001.25;5057733;28;20653;-45
2021/04/06 03:48:39;;;;;;;13.05;2.80;;;;;;;4.28;66.10;100006.03;5057241;28;20229;-46
2021/04/06 03:51:24;;;;;;;12.55;4.00;;;;;;;4.55;65.08;100003.22;5057330;28;20218;-45
2021/04/06 03:53:51;;;;;;;5.25;2.40;;;;;;;4.02;66.59;100005.47;5056760;28;20237;-45
2021/04/06 03:56:18;;;;;;;6.00;1.95;;;;;;;3.82;66.06;100006.88;5057706;28;20202;-46
2021/04/06 03:58:47;;;;;;;13.55;4.45;;;;;;;4.39;65.27;100006.63;5056540;28;20247;-45
2021/04/06 04:01:14;;;;;;;13.18;4.65;;;;;;;4.75;63.81;99999.94;5057397;28;20308;-45
2021/04/06 04:03:41;;;;;;;12.48;3.17;;;;;;;4.63;63.92;100000.19;5056848;28;20312;-45
2021/04/06 04:06:08;;;;;;;15.15;3.80;;;;;;;4.23;65.10;99997.22;5057457;28;20202;-46
2021/04/06 04:08:36;;;;;;;7.78;3.08;;;;;;;4.40;64.22;100005.81;5056502;28;20283;-46
2021/04/06 04:11:02;;;;;;;7.90;3.88;;;;;;;4.37;63.94;100005.66;5056905;28;20229;-45
2021/04/06 04:13:29;;;;;;;8.95;3.63;;;;;;;4.64;63.22;100020.72;5055579;28;20631;-46
2021/04/06 04:15:56;;;;;;;14.35;4.30;;;;;;;4.91;63.07;100022.97;5057303;28;20298;-45
2021/04/06 04:18:22;;;;;;;15.80;4.55;;;;;;;4.96;62.34;100030.88;5056801;28;20208;-46
2021/04/06 04:20:49;;;;;;;10.52;4.28;;;;;;;5.47;60.92;100036.09;5056580;28;20726;-45
2021/04/06 04:23:15;;;;;;;14.18;4.68;;;;;;;5.02;62.28;100020.97;5056228;28;20224;-44
2021/04/06 04:25:43;;;;;;;16.85;4.53;;;;;;;4.94;62.75;100022.28;5056714;28;20327;-45
2021/04/06 04:28:09;;;;;;;13.93;4.30;;;;;;;4.62;63.14;100016.31;5057096;28;20197;-45
2021/04/06 04:30:38;;;;;;;18.92;4.15;;;;;;;5.04;61.70;100013.41;5055345;28;20232;-46
2021/04/06 04:33:07;;;;;;;13.55;4.50;;;;;;;4.88;62.45;100017.72;5056830;28;20225;-45
2021/04/06 04:35:34;;;;;;;15.13;4.07;;;;;;;4.72;62.67;100014.34;5055987;28;20241;-45
2021/04/06 04:38:01;;;;;;;20.50;3.10;;;;;;;4.42;64.18;100016.13;5056806;28;20207;-46
2021/04/06 04:40:28;;;;;;;11.40;3.22;;;;;;;4.67;63.47;100007.22;5055477;28;20247;-45
2021/04/06 04:42:56;;;;;;;11.20;3.28;;;;;;;4.48;63.46;100011.34;5056617;28;20218;-44
2021/04/06 04:45:23;;;;;;;11.55;4.07;;;;;;;4.40;63.87;100005.81;5055535;28;20321;-47
2021/04/06 04:47:50;;;;;;;7.05;3.00;;;;;;;4.46;63.50;100003.59;5056630;28;20205;-45
2021/04/06 04:50:18;;;;;;;7.72;3.55;;;;;;;4.18;65.13;100008.84;5055329;28;20233;-45
2021/04/06 04:52:46;;;;;;;3.28;1.48;;;;;;;4.21;65.00;100020.91;5056285;28;20225;-46
2021/04/06 04:55:14;;;;;;;13.13;4.32;;;;;;;4.48;64.69;100023.22;5054649;28;20598;-45
2021/04/06 04:57:41;;;;;;;8.20;1.60;;;;;;;3.78;67.24;100026.25;5056520;28;20206;-45
2021/04/06 05:00:10;;;;;;;7.15;2.28;;;;;;;4.12;67.03;100017.06;5054611;28;20324;-46
2021/04/06 05:02:37;;;;;;;15.93;2.92;;;;;;;4.36;66.38;100016.66;5056384;28;20304;-45
2021/04/06 05:05:05;;;;;;;14.63;3.40;;;;;;;4.53;65.47;100014.16;5055613;28;20233;-45
2021/04/06 05:07:31;;;;;;;22.23;3.90;;;;;;;4.35;65.90;100014.88;5056501;28;20289;-46
2021/04/06 05:09:58;;;;;;;15.88;4.00;;;;;;;4.54;65.20;100005.69;5055255;28;20543;-46
2021/04/06 05:12:24;;;;;;;19.30;4.25;;;;;;;4.72;64.71;100011.78;5055601;28;20221;-47
2021/04/06 05:14:51;;;;;;;11.48;2.45;;;;;;;4.57;64.47;100006.72;5055017;28;20656;-46
2021/04/06 05:17:18;;;;;;;20.25;3.42;;;;;;;4.79;64.37;100007.00;5056072;28;20201;-46
2021/04/06 05:19:45;;;;;;;14.05;2.88;;;;;;;4.81;63.54;100008.84;5055012;28;20241;-47
2021/04/06 05:22:11;;;;;;;10.40;2.25;;;;;;;4.94;62.73;100000.16;5055570;28;20521;-46
2021/04/06 05:24:38;;;;;;;9.85;3.00;;;;;;;5.03;61.89;100009.09;5055128;28;20237;-45
2021/04/06 05:27:05;;;;;;;11.05;2.30;;;;;;;4.77;62.96;100008.59;5056072;28;20201;-45
2021/04/06 05:29:32;;;;;;;12.77;2.90;;;;;;;4.82;62.16;100007.19;5054976;28;20236;-45
2021/04/06 05:31:58;;;;;;;19.70;3.33;;;;;;;4.95;62.26;100016.34;5055296;28;20225;-45
2021/04/06 05:34:26;;;;;;;12.05;2.28;;;;;;;4.79;62.44;100017.22;5054999;28;20241;-46
2021/04/06 05:36:52;;;;;;;16.60;2.80;;;;;;;4.81;62.30;100013.06;5055918;28;20227;-46
2021/04/06 05:39:19;;;;;;;25.88;3.17;;;;;;;4.87;61.79;100015.94;5054815;28;20648;-45
2021/04/06 05:41:47;;;;;;;15.88;3.88;;;;;;;5.10;61.39;100019.72;5055182;28;20217;-47
2021/04/06 05:44:15;;;;;;;9.80;1.83;;;;;;;4.93;62.24;100028.19;5054503;28;20237;-45
2021/04/06 05:46:42;;;;;;;14.32;2.80;;;;;;;4.97;61.73;100023.31;5055615;28;20616;-45
2021/04/06 05:49:12;;;;;;;13.65;2.60;;;;;;;4.98;61.60;100030.19;5054817;28;20248;-46
2021/04/06 05:51:44;;;;;;;11.35;2.05;;;;;;;4.45;62.99;100035.06;5055146;28;20535;-45
2021/04/06 05:54:13;;;;;;;17.40;3.17;;;;;;;5.13;61.53;100024.13;5054565;28;20245;-45
2021/04/06 05:56:40;;;;;;;14.73;3.08;;;;;;;5.21;60.79;100034.72;5055506;28;20303;-45
2021/04/06 05:59:07;;;;;;;9.07;2.80;;;;;;;5.18;61.07;100025.22;5054384;28;20237;-45
2021/04/06 06:01:37;;;;;;;8.88;2.05;;;;;;;5.11;60.89;100028.25;5054894;28;20228;-45
2021/04/06 06:04:06;;;;;;;21.65;3.15;;;;;;;5.27;60.36;100024.81;5054716;28;20264;-46
2021/04/06 06:06:33;;;;;;;11.05;2.60;;;;;;;5.64;59.45;100023.28;5055253;28;20243;-49
2021/04/06 06:09:03;;;;;;;8.05;2.35;;;;;;;5.67;59.04;100025.97;5054473;28;20237;-46
2021/04/06 06:11:29;;;;;;;15.43;3.03;;;;;;;5.90;57.72;100021.13;5054907;28;20253;-47
2021/04/06 06:13:56;;;;;;;16.15;2.85;;;;;;;6.02;57.13;100010.56;5053673;28;20245;-45
2021/04/06 06:16:25;;;;;;;10.93;2.03;;;;;;;6.12;56.70;100014.50;5055155;28;20205;-48
2021/04/06 06:19:00;;;;;;;15.05;2.88;;;;;;;6.54;55.99;100022.44;5054159;28;20239;-45
2021/04/06 06:21:43;;;;;;;12.07;2.22;;;;;;;6.21;55.85;100028.63;5054219;28;20307;-47
2021/04/06 06:24:20;;;;;;;12.52;2.60;;;;;;;6.20;56.36;100038.78;5052318;28;20640;-46
2021/04/06 06:26:46;;;;;;;4.00;1.73;;;;;;;5.17;60.65;100072.06;5055301;28;20292;-45
2021/04/06 06:29:17;;;;;;;6.97;2.17;;;;;;;4.72;63.78;100049.25;5054252;28;20557;-45
2021/04/06 06:31:45;;;;;;;8.05;1.63;;;;;;;4.62;63.96;100042.78;5054529;28;20257;-46
2021/04/06 06:34:30;;;;;;;7.25;1.83;;;;;;;4.64;63.48;100019.84;5054344;28;20248;-46
2021/04/06 06:37:05;;;;;;;14.15;1.40;;;;;;;4.58;62.70;100035.72;5054178;28;20498;-47
2021/04/06 06:39:34;;;;;;;15.15;1.30;;;;;;;4.61;62.95;100029.91;5052599;28;20279;-48
2021/04/06 06:42:02;;;;;;;6.57;1.25;;;;;;;4.70;62.51;100028.72;5052922;28;20233;-45
2021/04/06 06:44:30;;;;;;;7.13;1.63;;;;;;;4.92;61.05;100029.00;5053324;28;20257;-45
2021/04/06 06:47:09;;;;;;;10.40;1.80;;;;;;;4.99;60.77;100028.50;5054852;28;20523;-45
2021/04/06 06:49:38;;;;;;;2.00;0.55;;;;;;;4.63;61.56;100041.97;5053688;28;20249;-45
2021/04/06 06:52:08;;;;;;;2.30;1.00;;;;;;;4.59;62.43;100045.13;5054252;28;20225;-45
2021/04/06 06:54:39;;;;;;;6.40;1.00;;;;;;;4.84;61.90;100036.25;5053752;28;20320;-45
2021/04/06 06:57:08;;;;;;;4.93;1.27;;;;;;;5.23;60.55;100036.56;5054825;28;20511;-46
2021/04/06 06:59:35;;;;;;;5.78;1.50;;;;;;;5.23;61.49;100036.56;5052976;28;20298;-45
2021/04/06 07:02:20;;;;;;;5.55;1.80;;;;;;;5.23;60.63;100030.59;5054163;28;20220;-45
2021/04/06 07:04:47;;;;;;;5.07;2.15;;;;;;;5.39;60.22;100029.69;5053647;28;20240;-45
2021/04/06 07:07:13;;;;;;;3.40;1.10;;;;;;;4.99;61.17;100024.25;5054508;28;20201;-46
2021/04/06 07:09:42;;;;;;;9.57;1.60;;;;;;;5.45;59.93;100027.47;5053523;28;20244;-46
2021/04/06 07:12:10;;;;;;;6.90;2.03;;;;;;;5.62;60.13;100035.97;5053951;28;20221;-44
2021/04/06 07:14:39;;;;;;;5.13;1.70;;;;;;;5.86;59.22;100030.31;5052847;28;20332;-46
2021/04/06 07:17:07;;;;;;;1.80;0.70;;;;;;;5.84;59.50;100029.34;5054569;28;20305;-46
2021/04/06 07:19:35;;;;;;;12.93;2.28;;;;;;;5.81;59.51;100047.13;5057056;28;20229;-46
2021/04/06 07:22:03;;;;;;;9.65;2.10;;;;;;;6.10;59.21;100034.03;5057556;28;20236;-46
2021/04/06 07:24:45;;;;;;;14.18;2.50;;;;;;;5.60;60.86;100047.81;5055224;28;20286;-46
2021/04/06 07:27:13;;;;;;;12.77;3.63;;;;;;;5.11;63.05;100041.03;5048205;28;20210;-46
2021/04/06 07:29:41;;;;;;;6.80;2.15;;;;;;;5.23;63.34;100043.38;5036937;28;20238;-47
2021/04/06 07:32:10;;;;;;;6.18;2.05;;;;;;;5.27;64.43;100038.50;5056933;28;20232;-48
2021/04/06 07:34:38;;;;;;;30.80;9.00;;;;;;;5.38;62.84;100036.47;5057081;28;20269;-45
2021/04/06 07:37:06;;;;;;;7.97;1.75;;;;;;;5.27;63.41;100023.16;5041687;28;20225;-45
2021/04/06 07:39:33;;;;;;;6.38;1.77;;;;;;;5.20;63.11;100031.31;5036669;28;20328;-45
2021/04/06 07:42:01;;;;;;;5.97;1.80;;;;;;;5.39;62.99;100027.16;5037357;28;20230;-45
2021/04/06 07:44:30;;;;;;;15.90;1.92;;;;;;;4.94;63.28;100018.03;5037111;28;20238;-46
2021/04/06 07:46:56;;;;;;;20.45;6.55;;;;;;;5.06;62.24;100016.91;5037908;28;20297;-46
2021/04/06 07:49:34;;;;;;;43.58;6.97;;;;;;;5.33;62.46;100029.38;5050529;28;20636;-45
2021/04/06 07:52:02;;;;;;;15.50;2.17;;;;;;;5.35;62.10;100022.66;5056983;28;20221;-45
2021/04/06 07:54:49;;;;;;;8.32;1.63;;;;;;;5.17;61.73;100020.91;5056471;28;20243;-46
2021/04/06 07:57:17;;;;;;;11.90;1.80;;;;;;;4.94;63.01;100018.03;5057489;28;20609;-46
2021/04/06 07:59:52;;;;;;;6.78;1.10;;;;;;;5.03;62.79;100015.06;5056108;28;20247;-45
2021/04/06 08:02:30;;;;;;;20.27;3.00;;;;;;;5.47;61.09;100024.94;5056765;28;20359;-46
2021/04/06 08:04:59;;;;;;;13.38;2.25;;;;;;;5.64;60.20;100034.38;5053017;28;20233;-46
2021/04/06 08:07:28;;;;;;;9.63;1.77;;;;;;;5.51;60.40;100032.88;5045804;28;20222;-46
2021/04/06 08:09:55;;;;;;;6.57;1.42;;;;;;;5.35;62.42;100045.69;5056298;28;20241;-44
2021/04/06 08:12:24;;;;;;;11.02;2.10;;;;;;;5.24;63.27;100040.88;5042929;28;20539;-46
2021/04/06 08:14:53;;;;;;;15.10;2.05;;;;;;;4.80;65.18;100049.66;5051898;28;20267;-46
2021/04/06 08:17:43;;;;;;;10.32;2.60;;;;;;;4.85;67.67;100045.66;5051525;28;20575;-45
2021/04/06 08:20:35;;;;;;;6.25;1.45;;;;;;;5.30;64.25;100036.88;5035444;28;20317;-46
2021/04/06 08:23:03;;;;;;;10.05;1.77;;;;;;;5.31;63.96;100041.19;5036579;28;20285;-45
2021/04/06 08:25:54;;;;;;;10.30;1.73;;;;;;;5.24;63.40;100032.34;5039657;28;20313;-45
2021/04/06 08:28:40;;;;;;;7.90;1.65;;;;;;;5.25;63.29;100035.00;5049379;28;20224;-45
2021/04/06 08:31:34;;;;;;;6.95;1.70;;;;;;;5.35;63.40;100041.47;5056621;28;20221;-45
2021/04/06 08:34:39;;;;;;;12.52;2.95;;;;;;;5.62;62.98;100029.97;5055810;28;20306;-45
2021/04/06 08:37:14;;;;;;;11.77;2.22;;;;;;;5.57;64.12;100019.50;5056857;28;20204;-47
2021/04/06 08:39:41;;;;;;;12.98;1.98;;;;;;;5.95;62.25;100019.66;5055582;28;20267;-45
2021/04/06 08:42:11;;;;;;;7.97;2.15;;;;;;;5.85;63.34;100017.44;5056032;28;20712;-46
2021/04/06 08:44:38;;;;;;;9.77;1.30;;;;;;;5.88;61.51;100020.13;5055116;28;20237;-50
2021/04/06 08:47:05;;;;;;;13.20;1.92;;;;;;;6.27;61.36;100009.22;5056740;28;20201;-45
2021/04/06 08:49:41;;;;;;;6.72;2.28;;;;;;;6.82;60.94;100008.31;5044412;28;20528;-46
2021/04/06 08:52:11;;;;;;;8.77;1.75;;;;;;;6.27;62.52;100011.78;5035895;28;20321;-47
2021/04/06 08:54:38;;;;;;;9.30;1.55;;;;;;;6.95;61.14;100008.84;5035243;28;20660;-46
2021/04/06 08:57:07;;;;;;;9.20;1.65;;;;;;;6.95;58.52;100007.19;5036496;28;20206;-45
2021/04/06 08:59:35;;;;;;;11.60;2.15;;;;;;;7.15;58.22;100009.75;5041501;28;20235;-47
2021/04/06 09:02:05;;;;;;;11.80;1.80;;;;;;;7.51;57.26;100001.00;5055775;28;20221;-45
2021/04/06 09:04:33;;;;;;;6.37;1.40;;;;;;;7.83;58.33;99999.75;5055145;28;20471;-45
2021/04/06 09:07:00;;;;;;;7.07;1.50;;;;;;;7.59;56.26;100002.19;5053566;28;20993;-46
2021/04/06 09:09:28;;;;;;;10.37;1.60;;;;;;;7.03;56.27;99997.28;5040493;28;20487;-46
2021/04/06 09:11:56;;;;;;;9.03;1.70;;;;;;;7.44;56.01;99989.59;5054291;28;20477;-45
2021/04/06 09:14:25;;;;;;;5.80;1.70;;;;;;;7.57;56.70;99980.72;5054500;28;20457;-45
2021/04/06 09:16:53;;;;;;;6.43;1.43;;;;;;;7.19;56.59;99983.44;5055974;28;20460;-46
2021/04/06 09:19:22;;;;;;;11.67;1.40;;;;;;;6.87;56.54;100001.72;5044915;28;20479;-47
2021/04/06 09:21:51;;;;;;;2.93;1.23;;;;;;;5.81;61.83;100024.97;5055101;28;20943;-46
2021/04/06 09:24:19;;;;;;;2.47;0.70;;;;;;;5.29;60.91;100009.56;5055243;28;20934;-46
2021/04/06 09:26:49;;;;;;;10.13;2.33;;;;;;;6.22;57.99;100001.31;5055985;28;20462;-45
2021/04/06 09:29:18;;;;;;;7.03;1.27;;;;;;;6.00;58.76;99995.13;5054678;28;20620;-46
2021/04/06 09:31:46;;;;;;;8.85;2.17;;;;;;;5.48;61.57;99978.13;5055130;28;20231;-45
2021/04/06 09:34:15;;;;;;;25.42;9.57;;;;;;;5.91;61.23;99992.13;5054416;28;20237;-45
2021/04/06 09:36:44;;;;;;;35.88;7.90;;;;;;;6.64;62.44;99986.97;5055529;28;20208;-44
2021/04/06 09:39:12;;;;;;;6.93;2.90;;;;;;;6.48;58.96;99987.16;5047957;28;20233;-44
2021/04/06 09:41:41;;;;;;;17.97;4.73;;;;;;;6.82;58.47;99987.78;5054443;28;20454;-44
2021/04/06 09:44:10;;;;;;;3.20;0.70;;;;;;;6.83;58.23;99993.81;5054424;28;20487;-46
2021/04/06 09:46:40;;;;;;;5.00;1.47;;;;;;;6.97;57.77;100000.44;5055504;28;20973;-45
2021/04/06 09:49:07;;;;;;;7.72;0.73;;;;;;;6.79;57.08;99985.09;5054584;28;20529;-46
2021/04/06 09:51:47;;;;;;;3.03;0.80;;;;;;;6.87;57.55;99985.47;5054874;28;20278;-45
2021/04/06 09:54:20;;;;;;;3.93;0.97;;;;;;;7.30;56.13;99976.19;5071020;28;21238;-46
2021/04/06 09:56:47;;;;;;;3.17;0.63;;;;;;;7.09;55.89;99971.88;5090173;28;20458;-46
2021/04/06 09:59:14;;;;;;;5.47;0.73;;;;;;;7.05;55.64;99979.38;5077554;28;20483;-45
2021/04/06 10:01:41;;;;;;;6.60;1.27;;;;;;;6.89;57.57;100010.34;5074772;28;20540;-45
2021/04/06 10:04:08;;;;;;;6.37;1.40;;;;;;;6.44;54.35;100015.13;5074061;28;20552;-45
2021/04/06 10:06:36;;;;;;;2.27;0.60;;;;;;;5.92;53.74;100010.16;5075006;28;20462;-45
2021/04/06 10:09:24;;;;;;;2.67;1.20;;;;;;;6.12;53.24;99992.31;5073481;28;20919;-47
2021/04/06 10:11:52;;;;;;;5.18;1.05;;;;;;;6.11;53.81;99997.38;5073725;28;20451;-46
2021/04/06 10:14:20;;;;;;;4.90;1.30;;;;;;;6.19;54.08;99971.31;5073624;28;20256;-46
2021/04/06 10:16:56;;;;;;;1.83;0.50;;;;;;;6.56;53.69;99974.69;5066122;28;20215;-47
2021/04/06 10:19:25;;;;;;;4.90;0.90;;;;;;;6.12;52.43;99964.16;5060236;28;20242;-47
2021/04/06 10:22:07;;;;;;;1.60;0.40;;;;;;;6.03;51.77;99971.38;5067241;28;20462;-49
2021/04/06 10:24:37;;;;;;;2.33;0.40;;;;;;;6.55;51.91;99960.13;5059804;28;20952;-50
2021/04/06 10:27:10;;;;;;;7.03;0.65;;;;;;;6.66;52.12;99975.13;5057740;28;20524;-48
2021/04/06 10:29:38;;;;;;;3.93;0.70;;;;;;;6.88;52.45;99964.13;5065353;28;20236;-47
2021/04/06 10:32:06;;;;;;;2.87;0.70;;;;;;;6.88;52.19;99956.44;5064947;28;20462;-47
2021/04/06 10:34:33;;;;;;;6.97;0.73;;;;;;;7.23;52.09;99957.06;5057368;28;20475;-50
2021/04/06 10:37:02;;;;;;;4.90;0.93;;;;;;;7.39;50.38;99950.03;5059789;28;20461;-50
2021/04/06 10:39:38;;;;;;;2.80;0.50;;;;;;;7.57;52.98;99944.75;5063073;28;20447;-48
2021/04/06 10:42:07;;;;;;;2.63;0.93;;;;;;;7.32;54.99;99935.19;5061156;28;20488;-47
2021/04/06 10:44:34;;;;;;;4.90;1.20;;;;;;;6.60;54.83;99939.81;5058476;28;20540;-48
2021/04/06 10:47:01;;;;;;;5.10;1.43;;;;;;;7.07;56.08;99942.72;5057171;28;20557;-48
2021/04/06 10:49:28;;;;;;;15.73;1.73;;;;;;;6.77;56.74;99940.56;5060350;28;20482;-46
2021/04/06 10:52:01;;;;;;;12.70;1.97;;;;;;;6.34;58.46;99948.09;5056076;28;20446;-47
2021/04/06 10:54:28;;;;;;;1.70;0.97;;;;;;;6.69;58.91;99950.50;5065157;28;20468;-47
2021/04/06 10:56:58;;;;;;;8.30;1.20;;;;;;;5.20;63.55;99963.91;5063221;28;20441;-46
2021/04/06 10:59:45;;;;;;;1.50;0.60;;;;;;;5.00;66.25;99967.22;5064836;28;20482;-46
2021/04/06 11:02:19;;;;;;;6.53;1.25;;;;;;;5.00;66.18;99974.00;5075160;28;20544;-46
2021/04/06 11:04:46;;;;;;;3.75;0.80;;;;;;;5.09;65.15;99976.16;5072694;28;20228;-46
2021/04/06 11:07:13;;;;;;;11.95;1.50;;;;;;;5.11;63.86;99970.34;5076296;28;20223;-45
2021/04/06 11:09:42;;;;;;;9.30;0.95;;;;;;;5.00;63.99;99969.78;5072758;28;20239;-45
2021/04/06 11:12:11;;;;;;;3.42;1.10;;;;;;;5.48;62.49;99960.22;5075528;28;20229;-46
2021/04/06 11:14:39;;;;;;;5.75;1.17;;;;;;;5.20;62.57;99961.38;5073143;28;20294;-45
2021/04/06 11:17:06;;;;;;;5.90;1.23;;;;;;;5.43;61.62;99956.53;5064099;28;20209;-45
2021/04/06 11:19:34;;;;;;;11.98;1.75;;;;;;;5.86;61.07;99948.41;5075050;28;20241;-46
2021/04/06 11:22:04;;;;;;;3.13;0.75;;;;;;;5.15;61.06;99950.91;5074088;28;20229;-45
2021/04/06 11:24:32;;;;;;;16.15;1.60;;;;;;;5.65;60.27;99943.13;5074888;28;20236;-44
2021/04/06 11:27:00;;;;;;;8.93;1.60;;;;;;;5.66;58.78;99939.75;5061626;28;20228;-48
2021/04/06 11:29:30;;;;;;;4.80;1.27;;;;;;;5.90;58.31;99934.06;5076967;28;20251;-45
2021/04/06 11:31:59;;;;;;;8.07;1.40;;;;;;;6.45;57.27;99929.75;5077042;28;20651;-48
2021/04/06 11:34:26;;;;;;;7.25;1.40;;;;;;;6.58;56.49;99929.50;5076675;28;20263;-46
2021/04/06 11:36:53;;;;;;;5.77;1.70;;;;;;;6.51;56.71;99922.34;5077331;28;20211;-46
2021/04/06 11:39:23;;;;;;;10.98;1.60;;;;;;;6.94;56.17;99914.78;5076936;28;20835;-46
2021/04/06 11:41:49;;;;;;;5.40;1.30;;;;;;;7.40;55.81;99916.69;5077433;28;20233;-45
2021/04/06 11:44:17;;;;;;;7.97;1.67;;;;;;;7.49;55.00;99894.81;5076315;28;20471;-45